Haxby, United Kingdom
Current Conditions -  °F | °C
As of 1:50 AM on Monday 26 Jan 2015 (Local Time) from EGXU Reporting Station
Overcast Overcast  
Wind Chill: 43°   Ceiling: 10000
Heat Index: 48°   Visibility: 6mi
Dew Point: 45°   Wind: 14mph
Humidity: 87%   Direction: 240°WSW
Pressure: 30.03"   Gusts: NA
Location:  54.02°N, 1.08°W
Report Text: EGXU 260150Z AUTO 24012KT 9999 // OVC100/// 09/07 Q1017
Loading
Personal Weather Stations






























Interactive Weather Map New forecast layout! Learn more

10-Day Weather Forecast

Advertisements
Track Severe Weather on mobile